»·PEaware :: N404FR KPOC-KSBA

N404FR :: KPOC-KSBA

FLIGHT INFORMATION

Flight Status: Arrived
Operator: Privately registered:
United States
More flights under this callsign
Pilot: Henderson P. (1210)
Aircraft: CESSNA 172 SKYHAWK
(C172)
More flights by this aircraft type
Origin: KPOC Brackett
United States
Destination: KSBA Santa Barbara Mun
United States
More flights between these airports :: More routes between these airports
Route: PRADO V16 PDZ V186 DEANO V27 KWANG
File this flight plan on PilotEdge
Remarks:
Altitude:
(Current/Filed)
6,000ft
Speed:
(Current/Filed)
110kts
Departed: 20-Apr-23 10:59 AM
Arrived: 20-Apr-23 11:57 AM
Distance/Time
Traveled:
104nm/0:58
Distance/Time
To Go:
Arrived

Flight Plot

Page will automatically refresh every two minutes.


Map Options




Map Legend


Flown Route
Filed Route
Departure Airport
Arrival Airport
Navaid (VOR, NDB)
Fix

Horizontal Profiles

Position Reports

Time Latitude Longitude Heading Altitude Ground
Speed
20-Apr-23 10:25 34.089975 -117.781287 93 1014ft 0kts
20-Apr-23 10:26 34.089975 -117.781287 93 1014ft 0kts
20-Apr-23 10:27 34.089975 -117.781287 93 1014ft 0kts
20-Apr-23 10:28 34.089975 -117.781287 93 1014ft 0kts
20-Apr-23 10:29 34.089975 -117.781287 93 1014ft 0kts
20-Apr-23 10:30 34.089975 -117.781287 93 1014ft 0kts
20-Apr-23 10:31 34.089975 -117.781287 93 1014ft 0kts
20-Apr-23 10:32 34.089975 -117.781287 93 1014ft 0kts
20-Apr-23 10:33 34.089975 -117.781287 93 1014ft 0kts
20-Apr-23 10:34 34.089975 -117.781287 93 1014ft 0kts
20-Apr-23 10:35 34.089975 -117.781287 93 1014ft 0kts
20-Apr-23 10:36 34.089975 -117.781287 93 1014ft 0kts
20-Apr-23 10:37 34.089975 -117.781287 93 1014ft 0kts
20-Apr-23 10:38 34.089975 -117.781287 93 1014ft 0kts
20-Apr-23 10:39 34.089975 -117.781287 93 1014ft 0kts
20-Apr-23 10:40 34.089975 -117.781284 93 1014ft 0kts
20-Apr-23 10:41 34.089975 -117.781281 93 1014ft 0kts
20-Apr-23 10:42 34.089975 -117.781278 93 1014ft 0kts
20-Apr-23 10:43 34.089974 -117.781275 93 1014ft 0kts
20-Apr-23 10:44 34.089974 -117.781272 93 1014ft 0kts
20-Apr-23 10:45 34.089974 -117.781269 93 1014ft 0kts
20-Apr-23 10:46 34.089974 -117.781266 93 1014ft 0kts
20-Apr-23 10:47 34.089974 -117.781264 93 1014ft 0kts
20-Apr-23 10:48 34.089974 -117.781261 93 1014ft 0kts
20-Apr-23 10:49 34.089973 -117.781258 93 1014ft 0kts
20-Apr-23 10:50 34.089973 -117.781255 93 1014ft 0kts
20-Apr-23 10:51 34.089973 -117.781252 93 1014ft 0kts
20-Apr-23 10:52 34.089973 -117.781249 93 1014ft 0kts
20-Apr-23 10:53 34.089973 -117.781246 93 1014ft 0kts
20-Apr-23 10:54 34.090306 -117.780621 33 1014ft 0kts
20-Apr-23 10:55 34.090494 -117.779216 93 1014ft 11kts
20-Apr-23 10:56 34.090311 -117.775314 93 1014ft 6kts
20-Apr-23 10:57 34.090996 -117.775093 273 1014ft 13kts
20-Apr-23 10:58 34.092097 -117.796424 273 1450ft 79kts
20-Apr-23 10:59 34.081544 -117.809964 148 2248ft 81kts
20-Apr-23 11:00 34.063886 -117.792861 142 3017ft 82kts
20-Apr-23 11:01 34.045930 -117.784335 187 3638ft 81kts
20-Apr-23 11:02 34.030065 -117.797046 271 4339ft 88kts
20-Apr-23 11:03 34.030653 -117.830887 273 5042ft 116kts
20-Apr-23 11:04 34.030334 -117.863999 276 5938ft 110kts
20-Apr-23 11:05 34.037069 -117.905508 287 5990ft 128kts
20-Apr-23 11:06 34.047862 -117.946441 290 5989ft 128kts
20-Apr-23 11:07 34.059992 -117.986172 292 5998ft 119kts
20-Apr-23 11:08 34.070415 -118.019046 293 5980ft 126kts
20-Apr-23 11:09 34.083644 -118.059787 293 5992ft 136kts
20-Apr-23 11:10 34.096678 -118.100033 293 5988ft 120kts
20-Apr-23 11:11 34.108800 -118.137465 293 5987ft 125kts
20-Apr-23 11:12 34.121916 -118.177707 293 5992ft 131kts
20-Apr-23 11:13 34.135136 -118.218451 293 5988ft 130kts
20-Apr-23 11:14 34.148281 -118.259009 293 5979ft 130kts
20-Apr-23 11:15 34.160331 -118.296591 293 5987ft 131kts
20-Apr-23 11:16 34.175223 -118.336688 296 5993ft 127kts
20-Apr-23 11:17 34.188146 -118.375230 291 5986ft 120kts
20-Apr-23 11:18 34.200011 -118.413839 291 6004ft 128kts
20-Apr-23 11:19 34.212444 -118.455153 292 6038ft 130kts
20-Apr-23 11:20 34.224476 -118.497177 285 5980ft 130kts
20-Apr-23 11:21 34.231385 -118.537084 283 5996ft 134kts
20-Apr-23 11:22 34.239088 -118.581283 284 5992ft 135kts
20-Apr-23 11:23 34.245891 -118.625420 282 6000ft 133kts
20-Apr-23 11:24 34.252017 -118.668736 282 5999ft 129kts
20-Apr-23 11:25 34.258119 -118.711149 282 6002ft 128kts
20-Apr-23 11:26 34.262956 -118.745276 281 5997ft 124kts
20-Apr-23 11:27 34.268685 -118.786057 282 6003ft 120kts
20-Apr-23 11:28 34.274270 -118.825497 282 6001ft 117kts
20-Apr-23 11:29 34.279673 -118.864074 281 5997ft 115kts
20-Apr-23 11:30 34.285509 -118.904603 283 5996ft 132kts
20-Apr-23 11:31 34.291634 -118.948017 282 5980ft 123kts
20-Apr-23 11:32 34.294682 -118.987535 268 5994ft 115kts
20-Apr-23 11:33 34.291836 -119.027442 268 5979ft 125kts
20-Apr-23 11:34 34.288785 -119.069427 267 5981ft 124kts
20-Apr-23 11:35 34.285804 -119.110646 268 5990ft 121kts
20-Apr-23 11:37 34.282743 -119.152566 267 5991ft 132kts
20-Apr-23 11:38 34.279481 -119.196307 268 5993ft 128kts
20-Apr-23 11:39 34.276175 -119.238504 268 6003ft 125kts
20-Apr-23 11:40 34.272484 -119.281102 266 6005ft 129kts
20-Apr-23 11:41 34.268691 -119.323097 267 6007ft 118kts
20-Apr-23 11:42 34.265023 -119.361926 267 6008ft 116kts
20-Apr-23 11:43 34.261349 -119.400610 267 6009ft 115kts
20-Apr-23 11:44 34.269170 -119.435318 292 5713ft 124kts
20-Apr-23 11:45 34.280204 -119.473230 292 5248ft 128kts
20-Apr-23 11:46 34.292930 -119.516576 292 4727ft 129kts
20-Apr-23 11:47 34.305265 -119.557660 292 4229ft 130kts
20-Apr-23 11:48 34.315209 -119.590449 292 4012ft 120kts
20-Apr-23 11:50 34.331540 -119.643953 0 4015ft 0kts
20-Apr-23 11:51 34.350194 -119.704571 293 4013ft 112kts
20-Apr-23 11:52 34.359882 -119.735723 293 4012ft 112kts
20-Apr-23 11:53 34.381088 -119.764700 323 3281ft 113kts
20-Apr-23 11:54 34.405257 -119.785824 327 2310ft 97kts
20-Apr-23 11:55 34.425288 -119.801162 312 1578ft 75kts
20-Apr-23 11:56 34.428097 -119.821585 266 788ft 60kts
20-Apr-23 11:57 34.427759 -119.842167 266 13ft 33kts
20-Apr-23 11:58 34.428444 -119.845574 65 13ft 8kts
20-Apr-23 11:59 34.429682 -119.843597 72 13ft 3kts
20-Apr-23 12:00 34.429698 -119.843549 66 13ft 0kts
20-Apr-23 12:01 34.429698 -119.843549 66 13ft 0kts
20-Apr-23 12:01 34.429698 -119.843549 66 13ft 0kts
20-Apr-23 12:02 34.429698 -119.843549 66 13ft 0kts
20-Apr-23 12:04 34.429698 -119.843549 66 13ft 0kts
20-Apr-23 12:05 34.429698 -119.843549 66 13ft 0kts
20-Apr-23 12:05 34.429698 -119.843549 66 13ft 0kts
20-Apr-23 12:06 34.429698 -119.843549 66 13ft 0kts
20-Apr-23 12:07 34.429698 -119.843549 66 13ft 0kts
20-Apr-23 12:09 34.429698 -119.843549 66 13ft 0kts
20-Apr-23 12:09 34.429698 -119.843549 66 13ft 0kts

Navigation Log

Ident Type
Flight plan parsing failed, navigation log unavailable